Time;durP1;ratioP1;P1;durP2;ratioP2;P2;SDS_P1;SDS_P2;PMS_P1;PMS_P2;Temp;Humidity;BMP_temperature;BMP_pressure;BME280_temperature;BME280_humidity;BME280_pressure;Samples;Min_cycle;Max_cycle;Signal;HPM_P1;HPM_P2
2022/12/10 00:01:27;;;;;;;97.50;25.73;;;;;;;-1.71;100.00;100866.44;5163906;28;20488;-74
2022/12/10 00:03:59;;;;;;;94.40;26.05;;;;;;;-1.70;100.00;100865.53;5164426;28;20018;-73
2022/12/10 00:06:33;;;;;;;88.25;26.23;;;;;;;-1.78;100.00;100861.63;5164310;28;20034;-74
2022/12/10 00:09:07;;;;;;;85.30;24.25;;;;;;;-1.83;100.00;100860.09;5164328;28;20022;-74
2022/12/10 00:11:38;;;;;;;94.05;25.67;;;;;;;-1.86;100.00;100868.19;5163769;28;20116;-74
2022/12/10 00:14:11;;;;;;;95.25;27.55;;;;;;;-1.81;100.00;100862.63;5163922;28;20093;-73
2022/12/10 00:16:42;;;;;;;92.00;26.25;;;;;;;-1.82;100.00;100856.53;5164447;28;20750;-73
2022/12/10 00:19:13;;;;;;;93.45;27.65;;;;;;;-1.84;100.00;100866.31;5164110;28;20041;-72
2022/12/10 00:21:44;;;;;;;91.57;26.90;;;;;;;-1.89;100.00;100863.09;5157853;28;20361;-72
2022/12/10 00:24:15;;;;;;;93.63;26.77;;;;;;;-1.88;100.00;100856.88;5163618;28;20464;-73
2022/12/10 00:26:45;;;;;;;95.15;26.35;;;;;;;-1.88;100.00;100854.25;5152103;28;20029;-72
2022/12/10 00:29:16;;;;;;;81.32;23.83;;;;;;;-1.93;100.00;100853.66;5163896;28;20472;-72
2022/12/10 00:31:46;;;;;;;86.97;23.65;;;;;;;-2.00;100.00;100860.22;5163807;28;20495;-72
2022/12/10 00:34:17;;;;;;;77.00;25.15;;;;;;;-2.01;100.00;100853.25;5163507;28;20022;-71
2022/12/10 00:36:49;;;;;;;93.60;27.15;;;;;;;-1.96;100.00;100856.50;5162241;28;20034;-72
2022/12/10 00:39:20;;;;;;;96.97;26.65;;;;;;;-1.93;100.00;100845.78;5163481;28;20029;-73
2022/12/10 00:41:51;;;;;;;96.15;27.25;;;;;;;-1.90;100.00;100858.75;5163398;28;20037;-72
2022/12/10 00:44:21;;;;;;;87.78;27.17;;;;;;;-1.90;100.00;100853.50;5163486;28;20097;-73
2022/12/10 00:46:52;;;;;;;90.78;28.42;;;;;;;-1.89;100.00;100849.94;5163081;28;20200;-73
2022/12/10 00:49:24;;;;;;;98.80;27.00;;;;;;;-1.88;100.00;100848.16;5163041;28;20499;-73
2022/12/10 00:51:54;;;;;;;104.57;29.60;;;;;;;-1.88;100.00;100845.53;5163284;28;20010;-74
2022/12/10 00:54:25;;;;;;;105.05;30.05;;;;;;;-1.89;100.00;100846.47;5163168;28;20026;-74
2022/12/10 00:56:55;;;;;;;77.22;24.40;;;;;;;-1.98;100.00;100849.59;5162994;28;20105;-73
2022/12/10 00:59:25;;;;;;;89.40;28.17;;;;;;;-1.98;100.00;100852.22;5163510;28;20492;-74
2022/12/10 01:01:56;;;;;;;90.35;25.98;;;;;;;-1.99;100.00;100854.03;5162919;28;20038;-73
2022/12/10 01:04:26;;;;;;;84.97;25.00;;;;;;;-1.94;100.00;100859.88;5163058;28;20030;-75
2022/12/10 01:06:59;;;;;;;97.10;26.45;;;;;;;-1.97;100.00;100860.03;5162836;28;20490;-74
2022/12/10 01:09:30;;;;;;;92.78;28.45;;;;;;;-1.98;100.00;100857.50;5163162;28;20037;-75
2022/12/10 01:12:03;;;;;;;100.32;28.88;;;;;;;-1.98;100.00;100865.38;5162916;28;20022;-75
2022/12/10 01:14:34;;;;;;;92.57;27.17;;;;;;;-2.03;100.00;100868.25;5163059;28;20123;-75
2022/12/10 01:17:05;;;;;;;102.18;28.60;;;;;;;-2.08;100.00;100871.16;5162444;28;20484;-75
2022/12/10 01:19:36;;;;;;;96.82;26.73;;;;;;;-2.07;100.00;100866.72;5163234;28;20480;-75
2022/12/10 01:22:06;;;;;;;101.25;29.95;;;;;;;-2.05;100.00;100875.41;5156920;28;20019;-75
2022/12/10 01:24:37;;;;;;;101.43;28.05;;;;;;;-2.05;100.00;100877.19;5162839;28;20037;-75
2022/12/10 01:27:07;;;;;;;92.13;27.85;;;;;;;-2.03;100.00;100881.41;5151250;28;20030;-76
2022/12/10 01:29:37;;;;;;;101.03;27.33;;;;;;;-2.14;100.00;100875.91;5162914;28;20121;-74
2022/12/10 01:32:08;;;;;;;107.80;30.05;;;;;;;-2.14;100.00;100875.91;5163384;28;20093;-73
2022/12/10 01:34:38;;;;;;;102.53;28.63;;;;;;;-2.10;100.00;100880.06;5162802;28;20272;-74
2022/12/10 01:37:09;;;;;;;105.30;30.02;;;;;;;-2.14;100.00;100870.66;5162134;28;20054;-74
2022/12/10 01:39:39;;;;;;;100.43;28.08;;;;;;;-2.19;100.00;100873.53;5162668;28;20437;-75
2022/12/10 01:42:12;;;;;;;104.75;28.05;;;;;;;-2.17;100.00;100876.06;5162931;28;20535;-75
2022/12/10 01:44:43;;;;;;;99.78;28.55;;;;;;;-2.18;100.00;100875.22;5163025;28;20491;-74
2022/12/10 01:47:13;;;;;;;106.28;30.80;;;;;;;-2.23;100.00;100877.25;5164412;28;20026;-74
2022/12/10 01:49:44;;;;;;;101.13;29.92;;;;;;;-2.20;100.00;100889.38;5166337;28;20037;-74
2022/12/10 01:52:14;;;;;;;105.95;29.42;;;;;;;-2.28;100.00;100894.19;5167064;28;20361;-74
2022/12/10 01:54:46;;;;;;;112.45;31.10;;;;;;;-2.26;100.00;100894.94;5166843;28;20029;-73
2022/12/10 01:57:21;;;;;;;120.45;32.50;;;;;;;-2.26;100.00;100898.47;5166391;28;20026;-74
2022/12/10 01:59:58;;;;;;;107.53;29.13;;;;;;;-2.25;100.00;100897.53;5166637;28;20488;-75
2022/12/10 02:02:32;;;;;;;103.55;28.95;;;;;;;-2.20;100.00;100902.53;5167061;28;20031;-73
2022/12/10 02:05:25;;;;;;;112.30;32.53;;;;;;;-2.24;100.00;100895.72;5166810;28;20023;-73
2022/12/10 02:08:20;;;;;;;112.47;31.13;;;;;;;-2.16;100.00;100899.66;5155015;28;20038;-75
2022/12/10 02:11:17;;;;;;;125.68;31.75;;;;;;;-2.12;100.00;100897.69;5181713;28;20499;-75
2022/12/10 02:14:05;;;;;;;126.18;33.10;;;;;;;-2.07;100.00;100903.53;5166566;28;20022;-74
2022/12/10 02:17:02;;;;;;;122.47;31.30;;;;;;;-2.03;100.00;100910.31;5166051;28;20037;-75
2022/12/10 02:19:54;;;;;;;112.22;29.23;;;;;;;-2.09;100.00;100910.66;5168159;28;20045;-75
2022/12/10 02:22:28;;;;;;;94.15;29.20;;;;;;;-2.15;100.00;100911.84;5161061;28;20033;-75
2022/12/10 02:25:02;;;;;;;119.70;31.33;;;;;;;-2.12;100.00;100903.78;5165737;28;20495;-75
2022/12/10 02:28:13;;;;;;;118.07;30.40;;;;;;;-2.06;100.00;100901.75;5154411;28;20109;-72
2022/12/10 02:30:47;;;;;;;101.18;29.88;;;;;;;-2.06;100.00;100909.63;5166675;28;20480;-72
2022/12/10 02:33:20;;;;;;;96.82;29.55;;;;;;;-2.06;100.00;100899.13;5166443;28;20029;-72
2022/12/10 02:35:52;;;;;;;110.88;29.48;;;;;;;-2.08;100.00;100912.34;5165200;28;20034;-73
2022/12/10 02:38:28;;;;;;;99.45;29.95;;;;;;;-2.05;100.00;100904.31;5165877;28;20104;-75
2022/12/10 02:41:05;;;;;;;99.70;29.65;;;;;;;-2.06;100.00;100910.47;5166636;28;20517;-73
2022/12/10 02:43:36;;;;;;;107.60;30.83;;;;;;;-2.05;100.00;100904.31;5166164;28;20026;-74
2022/12/10 02:46:07;;;;;;;122.15;32.33;;;;;;;-2.11;100.00;100907.25;5165656;28;20222;-74
2022/12/10 02:48:40;;;;;;;111.43;31.80;;;;;;;-2.11;100.00;100907.25;5165535;28;20112;-74
2022/12/10 02:51:10;;;;;;;107.85;30.35;;;;;;;-2.11;100.00;100909.88;5166072;28;20030;-74
2022/12/10 02:53:42;;;;;;;117.18;31.30;;;;;;;-2.05;100.00;100921.88;5166049;28;20489;-74
2022/12/10 02:56:25;;;;;;;119.18;31.67;;;;;;;-2.03;100.00;100910.31;5165671;28;20341;-74
2022/12/10 02:59:14;;;;;;;111.63;30.02;;;;;;;-2.04;100.00;100898.13;5164477;28;20061;-74
2022/12/10 03:02:19;;;;;;;104.32;28.27;;;;;;;-2.00;100.00;100904.91;5165926;28;20440;-74
2022/12/10 03:05:30;;;;;;;108.32;29.60;;;;;;;-1.98;100.00;100910.91;5165579;28;20443;-73
2022/12/10 03:08:14;;;;;;;108.82;28.50;;;;;;;-2.02;100.00;100904.13;5170964;28;20038;-74
2022/12/10 03:10:57;;;;;;;97.65;26.50;;;;;;;-2.01;100.00;100907.59;5165263;28;20053;-74
2022/12/10 03:13:40;;;;;;;105.68;28.38;;;;;;;-2.04;100.00;100913.06;5165471;28;20030;-74
2022/12/10 03:16:16;;;;;;;96.00;27.70;;;;;;;-2.05;100.00;100906.09;5165391;28;20116;-73
2022/12/10 03:18:51;;;;;;;118.55;30.85;;;;;;;-2.07;100.00;100914.06;5165297;28;20030;-73
2022/12/10 03:21:32;;;;;;;117.47;29.38;;;;;;;-2.06;100.00;100914.91;5159116;28;20113;-73
2022/12/10 03:24:03;;;;;;;117.68;30.70;;;;;;;-2.12;100.00;100906.41;5165258;28;20473;-73
2022/12/10 03:26:39;;;;;;;112.57;29.95;;;;;;;-2.11;100.00;100908.13;5154179;28;20030;-74
2022/12/10 03:29:15;;;;;;;117.87;29.47;;;;;;;-2.16;100.00;100907.53;5164948;28;20068;-74
2022/12/10 03:31:47;;;;;;;119.25;30.75;;;;;;;-2.16;100.00;100914.53;5164624;28;20018;-74
2022/12/10 03:34:17;;;;;;;122.53;30.55;;;;;;;-2.11;100.00;100909.88;5164955;28;20396;-75
2022/12/10 03:36:49;;;;;;;131.13;32.22;;;;;;;-2.11;100.00;100913.41;5164819;28;20396;-73
2022/12/10 03:39:20;;;;;;;127.72;33.00;;;;;;;-2.07;100.00;100908.78;5164826;28;20041;-74
2022/12/10 03:41:50;;;;;;;130.45;34.13;;;;;;;-2.03;100.00;100915.59;5164968;28;20399;-74
2022/12/10 03:44:30;;;;;;;143.18;34.33;;;;;;;-2.00;100.00;100915.44;5164579;28;20484;-73
2022/12/10 03:47:02;;;;;;;136.77;32.55;;;;;;;-1.99;100.00;100917.13;5164432;28;20495;-73
2022/12/10 03:49:33;;;;;;;127.75;32.10;;;;;;;-1.96;100.00;100913.47;5164720;28;20019;-73
2022/12/10 03:52:03;;;;;;;130.32;33.47;;;;;;;-1.98;100.00;100912.72;5164784;28;20033;-74
2022/12/10 03:54:34;;;;;;;136.80;33.00;;;;;;;-1.99;100.00;100909.22;5164453;28;20027;-74
2022/12/10 03:57:04;;;;;;;142.05;35.10;;;;;;;-1.98;100.00;100916.19;5164462;28;20169;-74
2022/12/10 03:59:34;;;;;;;139.50;35.05;;;;;;;-1.96;100.00;100903.81;5164767;28;20054;-73
2022/12/10 04:02:05;;;;;;;141.18;35.03;;;;;;;-1.97;100.00;100904.72;5164327;28;20030;-73
2022/12/10 04:04:36;;;;;;;143.10;33.80;;;;;;;-1.95;100.00;100897.63;5164709;28;20034;-74
2022/12/10 04:07:07;;;;;;;133.25;33.67;;;;;;;-1.98;100.00;100891.66;5163759;28;20025;-73
2022/12/10 04:09:37;;;;;;;162.10;37.08;;;;;;;-1.98;100.00;100892.53;5164255;28;20487;-73
2022/12/10 04:12:08;;;;;;;150.80;34.78;;;;;;;-2.05;100.00;100892.97;5164504;28;20054;-74
2022/12/10 04:17:27;;;;;;;145.57;34.67;;;;;;;-2.04;100.00;100894.66;5163458;28;20019;-74
2022/12/10 04:19:57;;;;;;;148.30;34.25;;;;;;;-2.02;100.00;100904.13;5163132;28;20027;-74
2022/12/10 04:28:06;;;;;;;141.02;34.72;;;;;;;-1.92;100.00;100915.00;5157059;28;20030;-73
2022/12/10 04:30:36;;;;;;;164.80;36.92;;;;;;;-2.02;100.00;100917.28;5164028;28;20022;-73
2022/12/10 04:33:07;;;;;;;144.07;34.38;;;;;;;-2.02;100.00;100908.53;5163850;28;20476;-73
2022/12/10 04:35:37;;;;;;;148.20;34.63;;;;;;;-2.03;100.00;100917.38;5163702;28;20169;-74
2022/12/10 04:38:07;;;;;;;152.52;34.92;;;;;;;-2.01;100.00;100907.59;5163424;28;20113;-74
2022/12/10 04:40:38;;;;;;;167.18;36.88;;;;;;;-1.98;100.00;100915.34;5163480;28;20033;-74
2022/12/10 04:43:08;;;;;;;158.82;37.10;;;;;;;-1.99;100.00;100914.50;5163680;28;20022;-74
2022/12/10 04:45:39;;;;;;;166.05;35.05;;;;;;;-2.09;100.00;100916.78;5164071;28;20451;-73
2022/12/10 04:48:09;;;;;;;161.95;35.30;;;;;;;-2.04;100.00;100920.94;5163135;28;20026;-73
2022/12/10 04:50:40;;;;;;;174.77;35.13;;;;;;;-2.09;100.00;100919.41;5163751;28;20069;-73
2022/12/10 04:53:10;;;;;;;155.98;36.20;;;;;;;-2.11;100.00;100925.66;5163203;28;20028;-74
2022/12/10 04:55:40;;;;;;;161.48;36.10;;;;;;;-2.15;100.00;100939.94;5163489;28;20326;-75
2022/12/10 04:58:11;;;;;;;151.23;35.35;;;;;;;-2.13;100.00;100924.91;5163171;28;20407;-74
2022/12/10 05:00:41;;;;;;;155.43;34.92;;;;;;;-2.13;100.00;100924.91;5163676;28;20050;-74
2022/12/10 05:03:12;;;;;;;167.55;37.50;;;;;;;-2.08;100.00;100928.97;5163452;28;20061;-74
2022/12/10 05:05:42;;;;;;;167.85;36.60;;;;;;;-2.11;100.00;100923.91;5178308;28;20109;-75
2022/12/10 05:08:13;;;;;;;160.05;35.10;;;;;;;-2.10;100.00;100930.84;5163015;28;20053;-74
2022/12/10 05:10:43;;;;;;;171.25;38.83;;;;;;;-2.10;100.00;100924.75;5163619;28;20134;-74
2022/12/10 05:13:14;;;;;;;168.82;37.78;;;;;;;-2.08;100.00;100917.63;5163460;28;20488;-75
2022/12/10 05:15:44;;;;;;;165.43;35.20;;;;;;;-2.05;100.00;100927.13;5163428;28;20122;-75
2022/12/10 05:18:14;;;;;;;152.95;35.08;;;;;;;-2.11;100.00;100921.28;5162666;28;20025;-75
2022/12/10 05:20:45;;;;;;;161.20;36.78;;;;;;;-2.12;100.00;100929.22;5157231;28;20026;-73
2022/12/10 05:23:27;;;;;;;180.80;36.85;;;;;;;-2.14;100.00;100928.47;5162826;28;20042;-74
2022/12/10 05:26:06;;;;;;;180.60;38.50;;;;;;;-2.14;100.00;100923.22;5155017;28;20030;-74
2022/12/10 05:28:39;;;;;;;172.23;39.65;;;;;;;-2.14;100.00;100918.81;5160826;28;20058;-72
2022/12/10 05:31:17;;;;;;;182.40;38.50;;;;;;;-2.12;100.00;100919.56;5163632;28;20033;-71
2022/12/10 05:33:48;;;;;;;183.23;40.25;;;;;;;-2.07;100.00;100921.94;5151415;28;20430;-73
2022/12/10 05:36:22;;;;;;;192.23;41.60;;;;;;;-2.06;100.00;100926.25;5172510;28;20086;-71
2022/12/10 05:38:54;;;;;;;197.30;38.92;;;;;;;-2.02;100.00;100924.31;5169727;28;20535;-72
2022/12/10 05:41:30;;;;;;;204.32;39.90;;;;;;;-1.98;100.00;100926.69;5163176;28;20038;-71
2022/12/10 05:44:01;;;;;;;222.70;40.47;;;;;;;-1.97;100.00;100928.38;5163062;28;20030;-71
2022/12/10 05:46:33;;;;;;;191.35;39.80;;;;;;;-1.97;100.00;100923.13;5162724;28;20026;-71
2022/12/10 05:49:05;;;;;;;197.52;40.63;;;;;;;-1.91;100.00;100924.56;5162415;28;20030;-71
2022/12/10 05:51:37;;;;;;;207.23;40.85;;;;;;;-1.86;100.00;100925.16;5162828;28;20022;-71
2022/12/10 05:54:09;;;;;;;197.45;40.70;;;;;;;-1.89;100.00;100927.97;5162777;28;20491;-71
2022/12/10 05:56:40;;;;;;;188.23;41.50;;;;;;;-1.87;100.00;100932.22;5162858;28;20477;-72
2022/12/10 05:59:10;;;;;;;173.68;38.38;;;;;;;-1.84;100.00;100939.94;5162434;28;20110;-72
2022/12/10 06:01:41;;;;;;;203.05;42.28;;;;;;;-1.85;100.00;100932.16;5162425;28;20380;-71
2022/12/10 06:04:12;;;;;;;206.07;41.10;;;;;;;-1.86;100.00;100928.66;5162563;28;20030;-71
2022/12/10 06:06:42;;;;;;;172.13;39.83;;;;;;;-1.87;100.00;100939.25;5162822;28;20038;-71
2022/12/10 06:09:13;;;;;;;173.25;38.55;;;;;;;-1.89;100.00;100939.34;5162506;28;20061;-71
2022/12/10 06:11:44;;;;;;;181.40;41.70;;;;;;;-1.89;100.00;100934.09;5162718;28;20038;-71
2022/12/10 06:14:14;;;;;;;176.95;39.00;;;;;;;-1.86;100.00;100936.56;5162490;28;20030;-71
2022/12/10 06:16:44;;;;;;;179.80;41.92;;;;;;;-1.82;100.00;100945.09;5162394;28;20030;-71
2022/12/10 06:19:15;;;;;;;187.02;42.47;;;;;;;-1.82;100.00;100940.69;5162644;28;20030;-71
2022/12/10 06:21:45;;;;;;;179.45;39.45;;;;;;;-1.82;100.00;100937.22;5156625;28;20176;-71
2022/12/10 06:24:16;;;;;;;192.77;39.35;;;;;;;-1.85;100.00;100938.25;5163196;28;20030;-71
2022/12/10 06:26:46;;;;;;;190.73;41.70;;;;;;;-1.95;100.00;100950.22;5150635;28;20153;-71
2022/12/10 06:29:17;;;;;;;254.10;44.20;;;;;;;-2.04;100.00;100940.19;5162376;28;20034;-71
2022/12/10 06:31:48;;;;;;;213.52;40.72;;;;;;;-2.04;100.00;100949.84;5162568;28;20026;-71
2022/12/10 06:34:18;;;;;;;207.38;43.30;;;;;;;-2.04;100.00;100955.13;5164553;28;20033;-71
2022/12/10 06:36:48;;;;;;;202.32;42.65;;;;;;;-2.02;100.00;100953.25;5165854;28;20492;-71
2022/12/10 06:39:19;;;;;;;205.70;41.38;;;;;;;-2.04;100.00;100961.22;5165729;28;20085;-71
2022/12/10 06:41:49;;;;;;;247.55;44.13;;;;;;;-2.06;100.00;100955.19;5165957;28;20473;-71
2022/12/10 06:44:20;;;;;;;203.93;40.80;;;;;;;-2.07;100.00;100956.13;5166072;28;20022;-71
2022/12/10 06:46:50;;;;;;;186.13;40.15;;;;;;;-2.02;100.00;100958.50;5165844;28;20030;-71
2022/12/10 06:49:21;;;;;;;203.15;42.83;;;;;;;-1.99;100.00;100964.44;5180908;28;20030;-71
2022/12/10 06:51:51;;;;;;;215.30;45.67;;;;;;;-1.98;100.00;100966.13;5165509;28;20072;-71
2022/12/10 06:54:22;;;;;;;223.60;45.05;;;;;;;-1.96;100.00;100960.78;5162640;28;20050;-71
2022/12/10 06:56:53;;;;;;;204.88;43.97;;;;;;;-1.94;100.00;100966.81;5149539;28;20022;-71
2022/12/10 06:59:24;;;;;;;231.75;46.85;;;;;;;-1.94;100.00;100959.78;5162905;28;20104;-71
2022/12/10 07:01:54;;;;;;;229.13;44.28;;;;;;;-1.93;100.00;100968.53;5164158;28;20101;-71
2022/12/10 07:04:25;;;;;;;225.23;44.33;;;;;;;-1.95;100.00;100963.34;5179212;28;20026;-71
2022/12/10 07:06:56;;;;;;;237.10;46.72;;;;;;;-1.95;100.00;100975.66;5163864;28;20515;-71
2022/12/10 07:09:26;;;;;;;203.65;44.35;;;;;;;-1.98;100.00;100974.03;5164257;28;20092;-71
2022/12/10 07:11:56;;;;;;;236.60;46.25;;;;;;;-2.01;100.00;100974.19;5163738;28;20034;-71
2022/12/10 07:14:27;;;;;;;209.15;43.15;;;;;;;-2.03;100.00;100976.06;5164630;28;20587;-71
2022/12/10 07:16:57;;;;;;;218.55;45.30;;;;;;;-1.99;100.00;100982.84;5163400;28;20034;-71
2022/12/10 07:19:28;;;;;;;225.73;43.28;;;;;;;-1.98;100.00;100981.06;5164689;28;20030;-71
2022/12/10 07:21:58;;;;;;;282.83;48.38;;;;;;;-1.96;100.00;100979.19;5157612;28;20042;-71
2022/12/10 07:24:29;;;;;;;226.60;45.42;;;;;;;-2.01;100.00;100991.75;5164096;28;20030;-71
2022/12/10 07:26:59;;;;;;;294.35;52.30;;;;;;;-2.02;100.00;100983.00;5152483;28;20032;-71
2022/12/10 07:29:30;;;;;;;216.15;47.50;;;;;;;-1.98;100.00;100987.16;5163512;28;20037;-71
2022/12/10 07:32:00;;;;;;;256.40;48.17;;;;;;;-1.98;100.00;100989.81;5163616;28;20028;-71
2022/12/10 07:34:31;;;;;;;253.35;46.35;;;;;;;-2.00;100.00;100994.31;5164025;28;20018;-71
2022/12/10 07:37:01;;;;;;;278.25;49.25;;;;;;;-1.97;100.00;100999.38;5163550;28;20027;-71
2022/12/10 07:39:32;;;;;;;242.13;46.00;;;;;;;-1.95;100.00;101004.56;5163406;28;20026;-71
2022/12/10 07:42:03;;;;;;;270.88;49.25;;;;;;;-2.01;100.00;101013.63;5163286;28;20034;-71
2022/12/10 07:44:33;;;;;;;265.05;45.78;;;;;;;-1.97;100.00;101009.06;5163289;28;20736;-70
2022/12/10 07:47:04;;;;;;;292.33;48.78;;;;;;;-1.97;100.00;101011.69;5163214;28;20484;-71
2022/12/10 07:49:35;;;;;;;332.75;51.10;;;;;;;-1.99;100.00;101000.41;5163388;28;20030;-71
2022/12/10 07:52:05;;;;;;;279.25;47.53;;;;;;;-2.04;100.00;100997.19;5162850;28;20076;-71
2022/12/10 07:54:36;;;;;;;389.02;53.47;;;;;;;-2.09;100.00;101006.16;5163548;28;20475;-71
2022/12/10 07:57:06;;;;;;;376.08;53.55;;;;;;;-2.12;100.00;101016.81;5162924;28;20046;-71
2022/12/10 07:59:37;;;;;;;262.08;45.20;;;;;;;-2.05;100.00;101020.00;5163314;28;20022;-71
2022/12/10 08:02:09;;;;;;;388.42;53.55;;;;;;;-2.02;100.00;101022.44;5162637;28;20444;-71
2022/12/10 08:04:39;;;;;;;376.65;52.00;;;;;;;-2.07;100.00;101021.84;5162976;28;20077;-71
2022/12/10 08:07:10;;;;;;;324.52;49.13;;;;;;;-2.07;100.00;101013.94;5162802;28;20472;-71
2022/12/10 08:09:40;;;;;;;308.35;50.03;;;;;;;-2.01;100.00;101018.03;5163267;28;20116;-71
2022/12/10 08:12:11;;;;;;;285.67;46.83;;;;;;;-1.96;100.00;101031.78;5162505;28;20069;-71
2022/12/10 08:14:41;;;;;;;345.13;49.30;;;;;;;-1.97;100.00;101028.31;5178368;28;20029;-71
2022/12/10 08:17:11;;;;;;;270.35;45.30;;;;;;;-1.93;100.00;101031.63;5162073;28;20018;-71
2022/12/10 08:19:42;;;;;;;266.73;42.88;;;;;;;-1.87;100.00;101037.41;5163016;28;20025;-71
2022/12/10 08:22:12;;;;;;;300.25;42.97;;;;;;;-1.84;100.00;101042.50;5156470;28;20435;-71
2022/12/10 08:24:43;;;;;;;251.93;42.10;;;;;;;-1.82;100.00;101039.78;5163217;28;20030;-71
2022/12/10 08:27:13;;;;;;;244.32;43.33;;;;;;;-1.82;100.00;101043.25;5149677;28;20053;-72
2022/12/10 08:29:44;;;;;;;256.50;40.50;;;;;;;-1.79;100.00;101042.25;5162759;28;20371;-71
2022/12/10 08:32:14;;;;;;;276.52;44.38;;;;;;;-1.82;100.00;101047.69;5162384;28;20452;-71
2022/12/10 08:34:44;;;;;;;256.50;42.38;;;;;;;-1.81;100.00;101036.22;5162744;28;20503;-71
2022/12/10 08:37:15;;;;;;;329.85;42.92;;;;;;;-1.89;100.00;101043.69;5162237;28;20050;-71
2022/12/10 08:39:45;;;;;;;306.95;44.25;;;;;;;-2.06;100.00;101048.97;5177539;28;20054;-71
2022/12/10 08:42:16;;;;;;;317.92;42.10;;;;;;;-2.09;100.00;101057.88;5162073;28;20030;-72
2022/12/10 08:44:46;;;;;;;469.17;48.90;;;;;;;-2.13;100.00;101048.44;5162514;28;20089;-71
2022/12/10 08:47:17;;;;;;;490.17;48.28;;;;;;;-2.08;100.00;101054.31;5176981;28;20022;-71
2022/12/10 08:49:47;;;;;;;498.10;49.65;;;;;;;-2.13;100.00;101057.19;5162245;28;20122;-71
2022/12/10 08:52:17;;;;;;;374.65;45.72;;;;;;;-2.14;100.00;101052.88;5161689;28;20042;-71
2022/12/10 08:54:48;;;;;;;388.65;46.25;;;;;;;-2.18;100.00;101053.09;5162085;28;20070;-71
2022/12/10 08:57:18;;;;;;;404.60;45.47;;;;;;;-2.18;100.00;101059.19;5161263;28;20104;-72
2022/12/10 08:59:49;;;;;;;422.90;45.70;;;;;;;-2.22;100.00;101062.91;5162120;28;20018;-71
2022/12/10 09:02:19;;;;;;;389.40;48.60;;;;;;;-2.15;100.00;101060.84;5161700;28;20176;-71
2022/12/10 09:04:50;;;;;;;432.17;50.30;;;;;;;-2.18;100.00;101056.56;5162046;28;20053;-71
2022/12/10 09:07:21;;;;;;;254.25;39.05;;;;;;;-2.06;100.00;101062.13;5161878;28;20034;-72
2022/12/10 09:09:52;;;;;;;433.67;52.17;;;;;;;-2.03;100.00;101062.81;5161952;28;20030;-72
2022/12/10 09:12:22;;;;;;;251.20;42.65;;;;;;;-2.00;100.00;101057.41;5161628;28;20485;-71
2022/12/10 09:14:53;;;;;;;259.70;42.53;;;;;;;-1.98;100.00;101063.41;5162210;28;20022;-72
2022/12/10 09:17:23;;;;;;;220.18;38.72;;;;;;;-1.91;100.00;101062.19;5161741;28;20026;-72
2022/12/10 09:19:54;;;;;;;292.52;42.17;;;;;;;-1.85;100.00;101066.28;5161454;28;20077;-72
2022/12/10 09:22:24;;;;;;;253.05;39.40;;;;;;;-1.93;100.00;101077.19;5156166;28;20034;-72
2022/12/10 09:24:54;;;;;;;242.38;37.53;;;;;;;-1.94;100.00;101079.91;5161850;28;20111;-72
2022/12/10 09:27:25;;;;;;;189.45;35.88;;;;;;;-1.93;100.00;101084.22;5150360;28;20066;-72
2022/12/10 09:29:55;;;;;;;235.27;39.10;;;;;;;-1.91;100.00;101085.84;5161652;28;20041;-73
2022/12/10 09:32:26;;;;;;;303.98;39.92;;;;;;;-1.84;100.00;101084.59;5161841;28;20018;-73
2022/12/10 09:34:56;;;;;;;237.98;35.67;;;;;;;-1.88;100.00;101088.31;5161731;28;20026;-73
2022/12/10 09:37:27;;;;;;;237.85;34.88;;;;;;;-1.83;100.00;101095.94;5161428;28;20058;-74
2022/12/10 09:39:57;;;;;;;206.88;35.42;;;;;;;-1.85;100.00;101090.78;5161593;28;20033;-74
2022/12/10 09:43:27;;;;;;;201.75;35.13;;;;;;;-1.96;100.00;101098.38;5161204;28;20035;-74
2022/12/10 09:46:18;;;;;;;231.88;38.35;;;;;;;-1.88;100.00;101096.19;5166089;28;20399;-74
2022/12/10 09:48:51;;;;;;;248.93;38.22;;;;;;;-1.83;100.00;101109.94;5161002;28;20033;-72
2022/12/10 09:51:29;;;;;;;229.95;38.78;;;;;;;-1.78;100.00;101111.50;5161443;28;20488;-72
2022/12/10 09:54:02;;;;;;;236.65;37.63;;;;;;;-1.76;100.00;101105.19;5161402;28;20465;-73
2022/12/10 09:56:35;;;;;;;242.07;40.17;;;;;;;-1.80;100.00;101113.38;5161517;28;20045;-72
2022/12/10 09:59:43;;;;;;;253.07;40.15;;;;;;;-1.86;100.00;101110.13;5160953;28;20122;-73
2022/12/10 10:02:30;;;;;;;215.57;35.78;;;;;;;-1.69;100.00;101100.50;5163517;28;20046;-73
2022/12/10 10:05:29;;;;;;;245.48;36.83;;;;;;;-1.64;100.00;101103.72;5161682;28;20030;-73
2022/12/10 10:08:06;;;;;;;260.27;35.97;;;;;;;-1.69;100.00;101101.34;5164110;28;20492;-73
2022/12/10 10:10:40;;;;;;;230.35;36.10;;;;;;;-1.70;100.00;101101.44;5165734;28;20069;-72
2022/12/10 10:13:51;;;;;;;243.85;37.80;;;;;;;-1.73;100.00;101101.56;5165176;28;20023;-73
2022/12/10 10:16:26;;;;;;;295.88;40.50;;;;;;;-1.83;100.00;101096.81;5165897;28;20080;-73
2022/12/10 10:18:56;;;;;;;256.48;36.50;;;;;;;-1.85;100.00;101103.09;5165237;28;20022;-72
2022/12/10 10:21:39;;;;;;;239.52;37.00;;;;;;;-1.83;100.00;101101.22;5159567;28;20476;-73
2022/12/10 10:24:16;;;;;;;222.95;35.13;;;;;;;-1.83;100.00;101109.09;5152991;28;20030;-73
2022/12/10 10:26:47;;;;;;;279.30;38.17;;;;;;;-1.82;100.00;101109.00;5153404;28;20089;-72
2022/12/10 10:29:21;;;;;;;210.63;35.10;;;;;;;-1.77;100.00;101100.88;5164858;28;20027;-73
2022/12/10 10:32:17;;;;;;;220.85;35.70;;;;;;;-1.76;100.00;101101.72;5164542;28;20021;-73
2022/12/10 10:34:56;;;;;;;240.82;36.65;;;;;;;-1.63;100.00;101102.78;5164611;28;20035;-72
2022/12/10 10:37:30;;;;;;;191.95;32.88;;;;;;;-1.53;100.00;101100.50;5163399;28;20058;-73
2022/12/10 10:40:01;;;;;;;204.05;34.92;;;;;;;-1.50;100.00;101103.00;5164827;28;20058;-73
2022/12/10 10:42:40;;;;;;;201.55;37.25;;;;;;;-1.41;100.00;101107.72;5164847;28;20143;-73
2022/12/10 10:45:34;;;;;;;199.23;35.70;;;;;;;-1.41;100.00;101102.47;5164469;28;20026;-73
2022/12/10 10:48:05;;;;;;;202.02;35.47;;;;;;;-1.54;100.00;101099.66;5164493;28;20139;-73
2022/12/10 10:50:43;;;;;;;194.15;34.85;;;;;;;-1.54;100.00;101102.28;5164723;28;20464;-72
2022/12/10 10:53:22;;;;;;;194.18;35.33;;;;;;;-1.44;100.00;101092.13;5164446;28;20197;-72
2022/12/10 10:55:56;;;;;;;193.75;33.80;;;;;;;-1.57;100.00;101105.09;5164551;28;20626;-72
2022/12/10 10:58:27;;;;;;;194.93;36.17;;;;;;;-1.48;100.00;101107.22;5164202;28;20030;-72
2022/12/10 11:01:07;;;;;;;183.20;34.72;;;;;;;-1.42;100.00;101106.88;5164224;28;20037;-73
2022/12/10 11:03:48;;;;;;;186.60;35.13;;;;;;;-1.32;100.00;101102.81;5164125;28;20054;-73
2022/12/10 11:06:18;;;;;;;190.52;37.85;;;;;;;-1.43;100.00;101105.19;5152608;28;20069;-73
2022/12/10 11:08:55;;;;;;;187.95;33.40;;;;;;;-1.40;100.00;101099.78;5164150;28;20337;-72
2022/12/10 11:11:34;;;;;;;181.90;35.47;;;;;;;-1.39;100.00;101112.00;5164311;28;20038;-73
2022/12/10 11:14:45;;;;;;;177.60;33.88;;;;;;;-1.42;100.00;101101.63;5163778;28;20057;-72
2022/12/10 11:17:21;;;;;;;162.25;33.42;;;;;;;-1.42;100.00;101106.03;5160591;28;20042;-72
2022/12/10 11:19:59;;;;;;;166.10;33.30;;;;;;;-1.38;100.00;101099.69;5163293;28;20028;-73
2022/12/10 11:22:32;;;;;;;157.85;33.83;;;;;;;-1.31;100.00;101104.53;5163472;28;20480;-73
2022/12/10 11:25:11;;;;;;;159.13;34.03;;;;;;;-1.48;100.00;101101.97;5163112;28;20026;-72
2022/12/10 11:28:00;;;;;;;169.02;33.03;;;;;;;-1.50;100.00;101090.69;5154047;28;20389;-72
2022/12/10 11:30:40;;;;;;;175.82;35.78;;;;;;;-1.39;100.00;101088.31;5163761;28;20030;-72
2022/12/10 11:33:24;;;;;;;150.48;31.55;;;;;;;-1.28;100.00;101092.97;5163621;28;20023;-72